createdAt,value
2019-02-05T00:00:46.218Z,4.60
2019-02-05T00:03:13.034Z,4.50
2019-02-05T00:05:39.677Z,4.60
2019-02-05T00:08:07.549Z,4.70
2019-02-05T00:10:34.244Z,4.80
2019-02-05T00:13:01.331Z,4.80
2019-02-05T00:15:28.484Z,4.60
2019-02-05T00:17:55.205Z,4.40
2019-02-05T00:20:22.294Z,4.20
2019-02-05T00:22:49.387Z,4.20
2019-02-05T00:25:16.372Z,4.40
2019-02-05T00:27:43.321Z,4.30
2019-02-05T00:30:10.497Z,4.50
2019-02-05T00:32:37.810Z,4.60
2019-02-05T00:35:04.543Z,4.40
2019-02-05T00:37:31.632Z,3.90
2019-02-05T00:39:58.554Z,3.40
2019-02-05T00:42:25.613Z,3.40
2019-02-05T00:44:52.704Z,3.20
2019-02-05T00:47:19.712Z,3.30
2019-02-05T00:49:46.562Z,3.20
2019-02-05T00:52:13.646Z,3.60
2019-02-05T00:54:40.366Z,3.90
2019-02-05T00:57:08.070Z,4.00
2019-02-05T00:59:34.892Z,4.20
2019-02-05T01:02:01.739Z,4.40
2019-02-05T01:04:28.408Z,4.20
2019-02-05T01:06:55.320Z,4.30
2019-02-05T01:09:22.102Z,4.30
2019-02-05T01:11:48.715Z,4.00
2019-02-05T01:14:15.383Z,3.90
2019-02-05T01:16:42.567Z,4.10
2019-02-05T01:19:09.599Z,4.00
2019-02-05T01:21:36.246Z,4.20
2019-02-05T01:24:03.063Z,4.30
2019-02-05T01:26:30.329Z,4.10
2019-02-05T01:28:58.104Z,4.20
2019-02-05T01:31:25.172Z,4.30
2019-02-05T01:33:51.866Z,4.40
2019-02-05T01:36:18.576Z,4.50
2019-02-05T01:38:45.499Z,4.50
2019-02-05T01:41:13.127Z,4.50
2019-02-05T01:43:39.847Z,4.50
2019-02-05T01:46:06.934Z,4.10
2019-02-05T01:48:33.692Z,3.80
2019-02-05T01:51:00.377Z,3.70
2019-02-05T01:53:27.236Z,3.50
2019-02-05T01:55:53.844Z,3.80
2019-02-05T01:58:20.450Z,3.70
2019-02-05T02:00:47.584Z,3.60
2019-02-05T02:03:14.740Z,3.80
2019-02-05T02:05:41.709Z,3.70
2019-02-05T02:08:08.357Z,3.60
2019-02-05T02:10:34.966Z,3.90
2019-02-05T02:13:01.887Z,4.00
2019-02-05T02:15:28.671Z,4.30
2019-02-05T02:17:55.309Z,4.40
2019-02-05T02:20:22.454Z,4.40
2019-02-05T02:22:49.501Z,4.40
2019-02-05T02:25:16.187Z,4.50
2019-02-05T02:27:42.935Z,4.60
2019-02-05T02:30:09.970Z,4.50
2019-02-05T02:32:36.849Z,4.60
2019-02-05T02:35:03.502Z,4.60
2019-02-05T02:37:30.231Z,4.40
2019-02-05T02:39:57.183Z,4.40
2019-02-05T02:42:24.160Z,4.30
2019-02-05T02:44:51.261Z,4.40
2019-02-05T02:47:18.428Z,4.40
2019-02-05T02:49:45.580Z,4.40
2019-02-05T02:52:12.442Z,4.50
2019-02-05T02:54:39.159Z,4.50
2019-02-05T02:57:05.851Z,4.50
2019-02-05T02:59:32.946Z,4.30
2019-02-05T03:01:59.954Z,4.30
2019-02-05T03:04:26.771Z,4.30
2019-02-05T03:06:53.445Z,4.20
2019-02-05T03:09:20.752Z,4.10
2019-02-05T03:11:47.703Z,4.20
2019-02-05T03:14:14.683Z,4.10
2019-02-05T03:16:42.062Z,4.10
2019-02-05T03:19:10.205Z,3.80
2019-02-05T03:21:36.978Z,4.00
2019-02-05T03:24:03.804Z,3.60
2019-02-05T03:26:30.573Z,3.60
2019-02-05T03:28:57.589Z,3.80
2019-02-05T03:31:24.562Z,3.90
2019-02-05T03:33:51.326Z,3.90
2019-02-05T03:36:18.520Z,3.80
2019-02-05T03:38:45.428Z,3.70
2019-02-05T03:41:12.470Z,3.70
2019-02-05T03:43:41.687Z,3.40
2019-02-05T03:46:09.626Z,3.60
2019-02-05T03:48:36.683Z,3.80
2019-02-05T03:51:03.807Z,3.90
2019-02-05T03:53:30.578Z,3.90
2019-02-05T03:55:57.559Z,3.50
2019-02-05T03:58:24.275Z,3.00
2019-02-05T04:00:51.396Z,3.30
2019-02-05T04:03:18.708Z,3.20
2019-02-05T04:05:45.473Z,3.70
2019-02-05T04:08:12.660Z,4.00
2019-02-05T04:10:39.707Z,3.70
2019-02-05T04:13:06.721Z,3.70
2019-02-05T04:15:33.389Z,3.50
2019-02-05T04:18:00.323Z,3.50
2019-02-05T04:20:27.317Z,3.50
2019-02-05T04:22:54.600Z,3.70
2019-02-05T04:25:21.394Z,3.90
2019-02-05T04:27:48.686Z,3.50
2019-02-05T04:30:15.622Z,3.40
2019-02-05T04:32:43.003Z,3.20
2019-02-05T04:35:09.807Z,3.30
2019-02-05T04:37:36.765Z,3.30
2019-02-05T04:40:03.423Z,3.40
2019-02-05T04:42:30.318Z,3.40
2019-02-05T04:44:57.242Z,3.20
2019-02-05T04:47:23.814Z,3.20
2019-02-05T04:49:50.472Z,3.30
2019-02-05T04:52:17.271Z,3.20
2019-02-05T04:54:44.110Z,3.00
2019-02-05T04:57:10.890Z,3.10
2019-02-05T04:59:37.976Z,3.00
2019-02-05T05:02:04.892Z,2.90
2019-02-05T05:04:31.506Z,2.90
2019-02-05T05:06:58.336Z,3.10
2019-02-05T05:09:25.015Z,2.90
2019-02-05T05:11:51.668Z,2.70
2019-02-05T05:14:18.597Z,2.70
2019-02-05T05:16:45.297Z,2.60
2019-02-05T05:19:11.994Z,2.60
2019-02-05T05:21:39.079Z,2.70
2019-02-05T05:24:06.071Z,2.50
2019-02-05T05:26:32.675Z,2.70
2019-02-05T05:28:59.338Z,2.70
2019-02-05T05:31:25.989Z,2.80
2019-02-05T05:33:53.006Z,2.70
2019-02-05T05:36:19.645Z,2.60
2019-02-05T05:38:46.259Z,2.60
2019-02-05T05:41:13.170Z,2.50
2019-02-05T05:43:39.957Z,2.50
2019-02-05T05:46:06.801Z,2.20
2019-02-05T05:48:33.501Z,2.50
2019-02-05T05:51:00.303Z,2.60
2019-02-05T05:56:12.908Z,2.60
2019-02-05T05:58:39.642Z,2.60
2019-02-05T06:01:06.351Z,2.70
2019-02-05T06:03:33.648Z,2.70
2019-02-05T06:06:00.301Z,2.90
2019-02-05T06:08:26.969Z,2.80
2019-02-05T06:10:53.653Z,2.70
2019-02-05T06:13:20.766Z,2.60
2019-02-05T06:15:47.728Z,2.40
2019-02-05T06:18:14.752Z,2.60
2019-02-05T06:20:41.935Z,2.50
2019-02-05T06:23:08.889Z,2.40
2019-02-05T06:25:35.822Z,2.30
2019-02-05T06:28:02.488Z,2.00
2019-02-05T06:30:29.171Z,2.00
2019-02-05T06:32:56.164Z,2.30
2019-02-05T06:35:23.276Z,2.50
2019-02-05T06:37:50.275Z,2.30
2019-02-05T06:40:18.749Z,2.30
2019-02-05T06:42:47.699Z,1.60
2019-02-05T06:45:17.230Z,1.60
2019-02-05T06:47:46.437Z,1.90
2019-02-05T06:50:20.536Z,2.20
2019-02-05T06:52:56.639Z,2.20
2019-02-05T06:55:25.031Z,2.20
2019-02-05T06:57:52.690Z,2.40
2019-02-05T07:00:23.700Z,2.40
2019-02-05T07:02:53.392Z,2.60
2019-02-05T07:05:25.552Z,2.30
2019-02-05T07:07:59.500Z,1.80
2019-02-05T07:10:27.147Z,2.10
2019-02-05T07:12:57.037Z,2.30
2019-02-05T07:15:23.624Z,2.50
2019-02-05T07:17:51.799Z,2.40
2019-02-05T07:20:18.450Z,2.50
2019-02-05T07:22:57.585Z,2.50
2019-02-05T07:25:18.428Z,2.30
2019-02-05T07:27:46.128Z,2.20
2019-02-05T07:30:17.818Z,2.50
2019-02-05T07:35:34.288Z,2.70
2019-02-05T07:38:05.692Z,2.90
2019-02-05T07:40:34.267Z,2.70
2019-02-05T07:43:02.835Z,2.30
2019-02-05T07:45:32.018Z,2.30
2019-02-05T07:48:05.002Z,2.50
2019-02-05T07:50:37.580Z,2.90
2019-02-05T07:53:04.482Z,3.00
2019-02-05T07:55:33.889Z,3.40
2019-02-05T07:58:05.071Z,3.50
2019-02-05T08:00:32.281Z,3.20
2019-02-05T08:02:58.980Z,3.50
2019-02-05T08:05:25.618Z,3.60
2019-02-05T08:07:52.666Z,3.50
2019-02-05T08:10:19.867Z,3.90
2019-02-05T08:12:49.107Z,3.60
2019-02-05T08:15:16.142Z,3.30
2019-02-05T08:17:42.911Z,3.40
2019-02-05T08:20:10.180Z,3.50
2019-02-05T08:22:37.118Z,3.60
2019-02-05T08:25:03.820Z,3.50
2019-02-05T08:27:30.711Z,3.60
2019-02-05T08:29:57.525Z,3.70
2019-02-05T08:32:24.239Z,3.60
2019-02-05T08:34:51.169Z,3.70
2019-02-05T08:37:18.180Z,3.70
2019-02-05T08:39:48.498Z,3.70
2019-02-05T08:42:16.294Z,3.70
2019-02-05T08:44:44.868Z,4.00
2019-02-05T08:47:15.013Z,4.20
2019-02-05T08:49:46.203Z,4.10
2019-02-05T08:52:16.181Z,4.30
2019-02-05T08:54:44.015Z,3.80
2019-02-05T08:57:13.897Z,4.50
2019-02-05T08:59:47.739Z,4.50
2019-02-05T09:02:14.719Z,3.60
2019-02-05T09:04:46.612Z,3.90
2019-02-05T09:07:15.729Z,3.80
2019-02-05T09:09:42.843Z,3.80
2019-02-05T09:12:13.937Z,3.90
2019-02-05T09:14:58.122Z,3.90
2019-02-05T09:17:28.460Z,4.60
2019-02-05T09:19:56.154Z,4.40
2019-02-05T09:22:24.832Z,4.00
2019-02-05T09:24:54.559Z,4.20
2019-02-05T09:27:22.178Z,4.80
2019-02-05T09:29:50.129Z,5.10
2019-02-05T09:32:19.744Z,4.60
2019-02-05T09:34:47.683Z,4.20
2019-02-05T09:37:15.946Z,4.50
2019-02-05T09:39:42.861Z,4.60
2019-02-05T09:42:16.226Z,4.40
2019-02-05T09:44:49.411Z,4.00
2019-02-05T09:47:18.589Z,4.10
2019-02-05T09:49:46.375Z,4.30
2019-02-05T09:52:16.539Z,4.20
2019-02-05T09:54:45.420Z,4.70
2019-02-05T09:57:12.613Z,4.90
2019-02-05T09:59:45.373Z,5.50
2019-02-05T10:02:11.673Z,5.10
2019-02-05T10:04:39.310Z,4.80
2019-02-05T10:07:08.039Z,4.80
2019-02-05T10:09:37.303Z,4.60
2019-02-05T10:12:06.338Z,4.90
2019-02-05T10:14:34.564Z,5.10
2019-02-05T10:17:04.301Z,4.50
2019-02-05T10:19:31.980Z,5.30
2019-02-05T10:21:59.722Z,5.30
2019-02-05T10:24:27.373Z,5.40
2019-02-05T10:27:06.737Z,5.60
2019-02-05T10:29:35.099Z,5.20
2019-02-05T10:32:04.884Z,5.30
2019-02-05T10:34:35.918Z,5.70
2019-02-05T10:37:06.755Z,5.70
2019-02-05T10:39:34.393Z,6.10
2019-02-05T10:42:03.993Z,5.70
2019-02-05T10:44:34.868Z,5.30
2019-02-05T10:47:01.978Z,4.80
2019-02-05T10:49:31.484Z,5.60
2019-02-05T10:51:58.856Z,5.40
2019-02-05T10:54:28.241Z,6.00
2019-02-05T10:56:56.169Z,5.90
2019-02-05T10:59:24.137Z,5.70
2019-02-05T11:01:52.564Z,6.50
2019-02-05T11:04:20.549Z,6.00
2019-02-05T11:06:53.643Z,6.30
2019-02-05T11:09:24.658Z,5.70
2019-02-05T11:11:52.621Z,6.30
2019-02-05T11:14:24.042Z,6.90
2019-02-05T11:16:51.831Z,6.80
2019-02-05T11:19:20.489Z,6.00
2019-02-05T11:21:52.105Z,6.10
2019-02-05T11:24:19.668Z,6.40
2019-02-05T11:26:46.425Z,6.80
2019-02-05T11:32:01.527Z,6.10
2019-02-05T11:34:29.490Z,6.60
2019-02-05T11:36:57.199Z,6.30
2019-02-05T11:39:25.279Z,6.10
2019-02-05T11:41:53.791Z,6.10
2019-02-05T11:44:20.799Z,6.20
2019-02-05T11:46:48.997Z,6.70
2019-02-05T11:49:19.675Z,6.90
2019-02-05T11:51:51.430Z,6.80
2019-02-05T11:54:18.485Z,6.80
2019-02-05T11:56:47.620Z,6.60
2019-02-05T11:59:16.821Z,7.10
2019-02-05T12:01:45.653Z,7.60
2019-02-05T12:04:12.300Z,7.80
2019-02-05T12:06:39.310Z,7.80
2019-02-05T12:09:06.497Z,7.10
2019-02-05T12:11:33.826Z,6.60
2019-02-05T12:14:00.514Z,7.50
2019-02-05T12:16:27.476Z,7.40
2019-02-05T12:18:54.108Z,7.80
2019-02-05T12:21:20.969Z,8.70
2019-02-05T12:23:47.832Z,8.40
2019-02-05T12:26:16.370Z,8.30
2019-02-05T12:28:43.072Z,8.10
2019-02-05T12:31:10.074Z,8.50
2019-02-05T12:33:37.158Z,8.20
2019-02-05T12:36:04.167Z,8.20
2019-02-05T12:38:31.709Z,8.10
2019-02-05T12:40:58.453Z,8.40
2019-02-05T12:43:25.379Z,9.00
2019-02-05T12:45:52.729Z,8.10
2019-02-05T12:48:19.448Z,7.90
2019-02-05T12:50:46.832Z,7.30
2019-02-05T12:53:13.638Z,7.90
2019-02-05T12:55:40.557Z,8.60
2019-02-05T12:58:07.188Z,8.30
2019-02-05T13:00:33.929Z,7.90
2019-02-05T13:03:02.192Z,8.10
2019-02-05T13:05:28.981Z,8.00
2019-02-05T13:07:56.387Z,8.00
2019-02-05T13:10:23.426Z,7.80
2019-02-05T13:12:50.196Z,8.40
2019-02-05T13:15:17.869Z,8.80
2019-02-05T13:17:44.617Z,9.10
2019-02-05T13:20:11.819Z,8.30
2019-02-05T13:22:38.595Z,8.50
2019-02-05T13:25:06.062Z,8.00
2019-02-05T13:27:33.314Z,8.10
2019-02-05T13:30:00.055Z,8.50
2019-02-05T13:32:26.784Z,8.00
2019-02-05T13:34:53.741Z,8.10
2019-02-05T13:37:20.602Z,8.30
2019-02-05T13:39:48.409Z,8.40
2019-02-05T13:42:15.186Z,8.00
2019-02-05T13:44:42.222Z,8.10
2019-02-05T13:47:09.217Z,8.20
2019-02-05T13:49:36.158Z,7.80
2019-02-05T13:52:02.821Z,7.50
2019-02-05T13:54:29.799Z,7.20
2019-02-05T13:56:56.566Z,7.90
2019-02-05T13:59:23.382Z,8.10
2019-02-05T14:01:50.361Z,8.70
2019-02-05T14:04:18.797Z,8.50
2019-02-05T14:06:45.606Z,8.50
2019-02-05T14:09:12.613Z,8.30
2019-02-05T14:11:39.218Z,7.90
2019-02-05T14:14:05.909Z,8.40
2019-02-05T14:16:33.164Z,8.40
2019-02-05T14:19:00.084Z,8.10
2019-02-05T14:21:27.200Z,8.30
2019-02-05T14:23:54.219Z,8.50
2019-02-05T14:26:21.134Z,8.10
2019-02-05T14:28:49.613Z,7.80
2019-02-05T14:31:17.192Z,7.90
2019-02-05T14:33:43.956Z,8.10
2019-02-05T14:36:11.671Z,8.20
2019-02-05T14:38:39.142Z,8.30
2019-02-05T14:41:07.472Z,7.70
2019-02-05T14:43:37.910Z,7.30
2019-02-05T14:46:04.574Z,7.30
2019-02-05T14:48:32.088Z,7.60
2019-02-05T14:50:59.617Z,7.60
2019-02-05T14:53:28.748Z,7.20
2019-02-05T14:55:59.168Z,7.20
2019-02-05T14:58:28.414Z,7.50
2019-02-05T15:00:58.516Z,7.40
2019-02-05T15:03:25.222Z,7.40
2019-02-05T15:05:52.519Z,7.40
2019-02-05T15:08:20.505Z,7.80
2019-02-05T15:10:47.157Z,7.50
2019-02-05T15:13:16.123Z,7.50
2019-02-05T15:15:42.779Z,6.80
2019-02-05T15:18:10.232Z,7.00
2019-02-05T15:20:37.094Z,6.80
2019-02-05T15:23:03.691Z,6.70
2019-02-05T15:25:30.426Z,6.80
2019-02-05T15:27:57.139Z,6.80
2019-02-05T15:30:24.701Z,6.90
2019-02-05T15:32:51.700Z,7.10
2019-02-05T15:35:18.631Z,6.80
2019-02-05T15:37:45.380Z,6.70
2019-02-05T15:40:12.225Z,6.90
2019-02-05T15:42:38.963Z,6.90
2019-02-05T15:45:17.661Z,6.80
2019-02-05T15:47:44.307Z,6.60
2019-02-05T15:50:11.307Z,6.20
2019-02-05T15:52:38.013Z,6.50
2019-02-05T15:55:04.923Z,6.70
2019-02-05T15:57:31.608Z,7.00
2019-02-05T16:00:00.772Z,6.80
2019-02-05T16:02:27.462Z,6.80
2019-02-05T16:04:54.403Z,6.90
2019-02-05T16:07:21.624Z,6.90
2019-02-05T16:09:48.293Z,6.90
2019-02-05T16:12:15.323Z,6.80
2019-02-05T16:14:41.955Z,6.70
2019-02-05T16:17:08.631Z,6.70
2019-02-05T16:19:35.642Z,6.60
2019-02-05T16:22:02.459Z,6.50
2019-02-05T16:24:29.727Z,6.50
2019-02-05T16:26:56.414Z,6.30
2019-02-05T16:29:25.820Z,6.10
2019-02-05T16:31:52.500Z,6.00
2019-02-05T16:34:19.309Z,5.90
2019-02-05T16:36:48.543Z,5.90
2019-02-05T16:39:14.483Z,5.70
2019-02-05T16:41:41.414Z,5.70
2019-02-05T16:44:10.717Z,5.60
2019-02-05T16:46:39.722Z,5.60
2019-02-05T16:49:10.550Z,5.60
2019-02-05T16:51:36.754Z,5.40
2019-02-05T16:54:05.044Z,5.20
2019-02-05T16:56:34.322Z,5.10
2019-02-05T16:59:01.944Z,5.30
2019-02-05T17:01:30.201Z,5.30
2019-02-05T17:03:57.752Z,5.20
2019-02-05T17:06:28.723Z,5.30
2019-02-05T17:08:59.579Z,5.20
2019-02-05T17:11:29.103Z,5.20
2019-02-05T17:13:55.750Z,4.90
2019-02-05T17:16:22.394Z,4.80
2019-02-05T17:19:06.809Z,4.70
2019-02-05T17:21:36.504Z,4.50
2019-02-05T17:24:04.127Z,4.50
2019-02-05T17:26:31.947Z,4.60
2019-02-05T17:29:03.853Z,4.50
2019-02-05T17:31:36.931Z,4.40
2019-02-05T17:34:04.414Z,4.40
2019-02-05T17:36:31.326Z,4.10
2019-02-05T17:38:58.250Z,4.20
2019-02-05T17:41:25.433Z,4.20
2019-02-05T17:43:52.122Z,4.10
2019-02-05T17:49:05.913Z,4.20
2019-02-05T17:51:33.555Z,3.60
2019-02-05T17:54:06.787Z,3.90
2019-02-05T17:56:33.439Z,3.60
2019-02-05T17:59:06.639Z,3.30
2019-02-05T18:01:33.428Z,3.40
2019-02-05T18:04:03.408Z,3.50
2019-02-05T18:06:31.363Z,3.20
2019-02-05T18:08:59.010Z,3.30
2019-02-05T18:11:29.532Z,3.20
2019-02-05T18:13:59.515Z,3.40
2019-02-05T18:16:30.208Z,3.00
2019-02-05T18:18:57.683Z,2.90
2019-02-05T18:21:25.709Z,3.10
2019-02-05T18:24:12.967Z,3.20
2019-02-05T18:26:40.236Z,3.20
2019-02-05T18:29:07.943Z,3.20
2019-02-05T18:31:37.907Z,2.90
2019-02-05T18:34:05.394Z,3.10
2019-02-05T18:36:38.517Z,2.80
2019-02-05T18:39:07.569Z,2.90
2019-02-05T18:41:34.499Z,2.80
2019-02-05T18:44:01.801Z,2.70
2019-02-05T18:46:28.942Z,2.90
2019-02-05T18:49:04.598Z,2.70
2019-02-05T18:51:25.592Z,2.40
2019-02-05T18:53:52.532Z,2.10
2019-02-05T18:56:19.290Z,2.10
2019-02-05T18:58:46.080Z,2.50
2019-02-05T19:01:12.802Z,2.90
2019-02-05T19:06:11.571Z,2.20
2019-02-05T19:08:38.456Z,1.60
2019-02-05T19:11:06.761Z,1.90
2019-02-05T19:13:33.593Z,1.90
2019-02-05T19:16:00.530Z,2.10
2019-02-05T19:18:27.183Z,1.90
2019-02-05T19:20:53.880Z,2.10
2019-02-05T19:23:20.879Z,2.00
2019-02-05T19:25:47.926Z,2.10
2019-02-05T19:28:14.842Z,2.40
2019-02-05T19:30:42.965Z,2.50
2019-02-05T19:33:09.915Z,2.50
2019-02-05T19:35:36.600Z,2.40
2019-02-05T19:38:03.667Z,2.10
2019-02-05T19:40:30.416Z,2.00
2019-02-05T19:42:57.761Z,1.80
2019-02-05T19:45:24.779Z,1.80
2019-02-05T19:47:52.263Z,1.90
2019-02-05T19:50:18.960Z,1.90
2019-02-05T19:52:45.737Z,1.60
2019-02-05T19:55:13.227Z,1.30
2019-02-05T19:57:40.197Z,0.90
2019-02-05T20:00:07.205Z,0.80
2019-02-05T20:02:34.117Z,0.80
2019-02-05T20:05:01.506Z,0.70
2019-02-05T20:07:28.475Z,0.80
2019-02-05T20:09:55.572Z,1.30
2019-02-05T20:12:23.854Z,1.40
2019-02-05T20:14:50.494Z,1.50
2019-02-05T20:17:17.365Z,1.10
2019-02-05T20:19:44.646Z,1.30
2019-02-05T20:22:12.289Z,1.10
2019-02-05T20:24:40.033Z,1.40
2019-02-05T20:27:06.767Z,1.30
2019-02-05T20:29:33.755Z,1.40
2019-02-05T20:32:01.077Z,1.30
2019-02-05T20:34:29.014Z,1.50
2019-02-05T20:36:55.747Z,1.70
2019-02-05T20:39:22.708Z,1.30
2019-02-05T20:41:52.438Z,0.80
2019-02-05T20:44:17.901Z,0.80
2019-02-05T20:46:44.853Z,0.40
2019-02-05T20:49:11.618Z,0.80
2019-02-05T20:51:38.301Z,1.00
2019-02-05T20:54:05.193Z,0.80
2019-02-05T20:56:31.853Z,0.70
2019-02-05T20:58:59.118Z,0.70
2019-02-05T21:01:26.050Z,0.30
2019-02-05T21:04:00.936Z,0.50
2019-02-05T21:06:21.115Z,0.20
2019-02-05T21:08:47.780Z,0.80
2019-02-05T21:11:15.043Z,0.80
2019-02-05T21:13:42.007Z,0.90
2019-02-05T21:16:08.942Z,0.90
2019-02-05T21:18:35.915Z,0.20
2019-02-05T21:21:02.828Z,0.50
2019-02-05T21:23:29.581Z,0.80
2019-02-05T21:25:56.250Z,0.70
2019-02-05T21:28:23.265Z,0.90
2019-02-05T21:30:50.427Z,1.10
2019-02-05T21:33:19.029Z,1.20
2019-02-05T21:35:45.945Z,0.60
2019-02-05T21:38:12.587Z,0.60
2019-02-05T21:40:39.598Z,0.80
2019-02-05T21:43:06.537Z,0.50
2019-02-05T21:45:33.966Z,0.60
2019-02-05T21:48:00.773Z,1.00
2019-02-05T21:50:27.481Z,0.40
2019-02-05T21:52:54.512Z,0.80
2019-02-05T21:55:21.174Z,0.90
2019-02-05T21:57:48.223Z,1.20
2019-02-05T22:00:15.169Z,1.10
2019-02-05T22:02:42.537Z,1.10
2019-02-05T22:05:09.746Z,1.20
2019-02-05T22:07:36.498Z,1.20
2019-02-05T22:10:03.348Z,0.60
2019-02-05T22:12:30.797Z,0.70
2019-02-05T22:14:57.538Z,0.50
2019-02-05T22:17:24.620Z,0.60
2019-02-05T22:19:51.493Z,0.80
2019-02-05T22:22:18.840Z,1.00
2019-02-05T22:24:45.597Z,0.90
2019-02-05T22:27:13.036Z,0.80
2019-02-05T22:29:40.105Z,0.60
2019-02-05T22:32:06.854Z,0.60
2019-02-05T22:34:39.465Z,0.80
2019-02-05T22:37:03.701Z,0.80
2019-02-05T22:39:31.524Z,0.80
2019-02-05T22:41:58.333Z,0.60
2019-02-05T22:44:25.564Z,0.30
2019-02-05T22:46:52.590Z,0.20
2019-02-05T22:49:19.637Z,0.10
2019-02-05T22:51:46.737Z,0.30
2019-02-05T22:54:13.454Z,0.30
2019-02-05T22:56:40.170Z,0.30
2019-02-05T22:59:07.179Z,0.60
2019-02-05T23:01:33.912Z,0.60
2019-02-05T23:04:02.138Z,0.20
2019-02-05T23:06:29.083Z,0.20
2019-02-05T23:08:56.175Z,0.40
2019-02-05T23:11:22.931Z,0.50
2019-02-05T23:13:50.851Z,0.20
2019-02-05T23:16:17.595Z,0.00
2019-02-05T23:18:44.214Z,-0.20
2019-02-05T23:21:11.065Z,0.20
2019-02-05T23:23:38.440Z,0.00
2019-02-05T23:26:05.218Z,0.00
2019-02-05T23:28:32.815Z,-0.50
2019-02-05T23:30:59.478Z,-0.70
2019-02-05T23:33:26.510Z,-1.10
2019-02-05T23:35:53.209Z,-1.00
2019-02-05T23:38:19.780Z,-0.40
2019-02-05T23:40:46.633Z,-0.20
2019-02-05T23:43:13.568Z,0.00
2019-02-05T23:45:40.781Z,-0.40
2019-02-05T23:48:07.897Z,-0.50
2019-02-05T23:50:35.279Z,-0.40
2019-02-05T23:53:03.339Z,-0.10
2019-02-05T23:55:30.577Z,-0.10
2019-02-05T23:57:57.260Z,-0.40
